Time;durP1;ratioP1;P1;durP2;ratioP2;P2;SDS_P1;SDS_P2;PMS_P1;PMS_P2;Temp;Humidity;BMP_temperature;BMP_pressure;BME280_temperature;BME280_humidity;BME280_pressure;Samples;Min_cycle;Max_cycle;Signal;HPM_P1;HPM_P2
2021/01/14 00:00:47;;;;;;;33.83;10.35;;;;;;;;;;5049380;28;20025;-64
2021/01/14 00:03:13;;;;;;;28.23;8.67;;;;;;;;;;5049538;28;20111;-66
2021/01/14 00:05:41;;;;;;;21.35;8.82;;;;;;;;;;5048604;28;20276;-64
2021/01/14 00:08:06;;;;;;;29.83;9.23;;;;;;;;;;5049356;28;20099;-64
2021/01/14 00:10:32;;;;;;;30.92;8.57;;;;;;;;;;5048977;28;20540;-65
2021/01/14 00:12:57;;;;;;;30.63;9.82;;;;;;;;;;5048762;28;20480;-65
2021/01/14 00:15:22;;;;;;;26.55;9.27;;;;;;;;;;5048174;28;20024;-65
2021/01/14 00:17:48;;;;;;;27.92;8.35;;;;;;;;;;5048669;28;20033;-65
2021/01/14 00:20:14;;;;;;;36.78;9.05;;;;;;;;;;5055495;23;20056;-67
2021/01/14 00:22:40;;;;;;;31.58;9.32;;;;;;;;;;5028355;28;20536;-67
2021/01/14 00:25:06;;;;;;;23.98;8.57;;;;;;;;;;5028126;28;20045;-67
2021/01/14 00:27:31;;;;;;;29.52;10.18;;;;;;;;;;5027674;28;20096;-67
2021/01/14 00:29:56;;;;;;;34.53;8.70;;;;;;;;;;5026161;28;20108;-67
2021/01/14 00:32:22;;;;;;;31.95;8.65;;;;;;;;;;5019097;28;20061;-67
2021/01/14 00:34:47;;;;;;;26.73;10.25;;;;;;;;;;5016327;28;20104;-67
2021/01/14 00:39:56;;;;;;;21.13;8.30;;;;;;;;;;5018891;28;20487;-67
2021/01/14 00:42:21;;;;;;;26.45;9.00;;;;;;;;;;5018944;28;20533;-67
2021/01/14 00:44:46;;;;;;;22.20;7.30;;;;;;;;;;5018011;28;20370;-67
2021/01/14 00:47:12;;;;;;;26.30;7.05;;;;;;;;;;5017627;28;20502;-67
2021/01/14 00:49:37;;;;;;;35.38;6.72;;;;;;;;;;5018763;28;20084;-67
2021/01/14 00:52:03;;;;;;;23.60;6.05;;;;;;;;;;5018585;28;20037;-66
2021/01/14 00:54:28;;;;;;;19.73;5.93;;;;;;;;;;5014979;28;20029;-67
2021/01/14 00:56:53;;;;;;;27.67;5.82;;;;;;;;;;5016406;28;20034;-67
2021/01/14 00:59:18;;;;;;;21.25;5.72;;;;;;;;;;5019048;28;20755;-67
2021/01/14 01:01:43;;;;;;;21.23;4.13;;;;;;;;;;5017837;28;20021;-67
2021/01/14 01:04:10;;;;;;;19.33;4.43;;;;;;;;;;5015830;28;20612;-67
2021/01/14 01:06:35;;;;;;;15.43;3.72;;;;;;;;;;5017963;28;20273;-67
2021/01/14 01:09:01;;;;;;;17.48;3.22;;;;;;;;;;5017509;28;20071;-67
2021/01/14 01:11:27;;;;;;;12.30;2.80;;;;;;;;;;5018870;28;20498;-67
2021/01/14 01:13:52;;;;;;;20.85;2.28;;;;;;;;;;5017996;28;20060;-67
2021/01/14 01:16:18;;;;;;;11.07;1.80;;;;;;;;;;5018360;28;20033;-67
2021/01/14 01:18:43;;;;;;;19.85;3.17;;;;;;;;;;5016979;28;21468;-66
2021/01/14 01:21:09;;;;;;;13.75;2.17;;;;;;;;;;5017594;28;20418;-67
2021/01/14 01:23:34;;;;;;;8.50;2.00;;;;;;;;;;5018828;28;20565;-67
2021/01/14 01:25:59;;;;;;;8.35;1.90;;;;;;;;;;5017497;28;21519;-67
2021/01/14 01:28:24;;;;;;;13.43;1.73;;;;;;;;;;5018817;28;20124;-67
2021/01/14 01:30:50;;;;;;;12.73;2.35;;;;;;;;;;5016692;28;20071;-67
2021/01/14 01:33:15;;;;;;;15.30;1.27;;;;;;;;;;5015452;28;21604;-67
2021/01/14 01:35:40;;;;;;;17.92;1.48;;;;;;;;;;5017096;28;20030;-67
2021/01/14 01:38:05;;;;;;;9.90;1.55;;;;;;;;;;5015871;28;20112;-67
2021/01/14 01:40:30;;;;;;;10.07;1.42;;;;;;;;;;5016303;28;20022;-67
2021/01/14 01:42:55;;;;;;;6.53;1.38;;;;;;;;;;5016516;28;20018;-67
2021/01/14 01:45:21;;;;;;;8.35;1.40;;;;;;;;;;5015813;28;20021;-66
2021/01/14 01:47:46;;;;;;;8.90;1.60;;;;;;;;;;5017496;28;20026;-67
2021/01/14 01:50:12;;;;;;;7.72;1.70;;;;;;;;;;5017237;28;20029;-67
2021/01/14 01:52:37;;;;;;;12.00;1.63;;;;;;;;;;5016615;28;20505;-67
2021/01/14 01:55:03;;;;;;;12.95;1.33;;;;;;;;;;5017665;28;20048;-66
2021/01/14 01:57:29;;;;;;;15.60;1.48;;;;;;;;;;5016985;28;20061;-67
2021/01/14 01:59:54;;;;;;;12.88;1.65;;;;;;;;;;5017728;28;20061;-66
2021/01/14 02:02:23;;;;;;;11.98;1.27;;;;;;;;;;5018785;28;20017;-66
2021/01/14 02:04:48;;;;;;;21.63;1.38;;;;;;;;;;5016539;28;20737;-66
2021/01/14 02:07:18;;;;;;;9.23;1.13;;;;;;;;;;5019340;28;20103;-67
2021/01/14 02:09:45;;;;;;;9.98;1.27;;;;;;;;;;5015761;28;20037;-67
2021/01/14 02:12:11;;;;;;;15.57;1.98;;;;;;;;;;5018286;28;20033;-66
2021/01/14 02:14:36;;;;;;;8.48;1.15;;;;;;;;;;5015262;28;20033;-67
2021/01/14 02:17:02;;;;;;;11.27;1.95;;;;;;;;;;5017091;28;20512;-67
2021/01/14 02:19:36;;;;;;;11.00;1.48;;;;;;;;;;5016638;28;20020;-67
2021/01/14 02:22:04;;;;;;;11.90;1.50;;;;;;;;;;5015722;28;20021;-67
2021/01/14 02:24:35;;;;;;;13.32;1.52;;;;;;;;;;5016530;28;20022;-67
2021/01/14 02:27:00;;;;;;;10.27;2.15;;;;;;;;;;5017986;28;20049;-67
2021/01/14 02:29:25;;;;;;;21.90;2.00;;;;;;;;;;5016418;28;20061;-67
2021/01/14 02:31:50;;;;;;;18.50;1.63;;;;;;;;;;5015556;28;20030;-67
2021/01/14 02:34:15;;;;;;;12.63;1.60;;;;;;;;;;5023049;28;20501;-66
2021/01/14 02:36:41;;;;;;;14.32;1.38;;;;;;;;;;5016126;28;20025;-66
2021/01/14 02:39:06;;;;;;;9.32;1.40;;;;;;;;;;5016822;28;20029;-67
2021/01/14 02:41:31;;;;;;;9.32;1.50;;;;;;;;;;5014701;28;20451;-67
2021/01/14 02:43:56;;;;;;;15.55;2.17;;;;;;;;;;5016612;28;20022;-67
2021/01/14 02:46:22;;;;;;;8.13;1.60;;;;;;;;;;5018066;28;20021;-67
2021/01/14 02:48:57;;;;;;;17.58;1.85;;;;;;;;;;5017920;28;20644;-67
2021/01/14 02:51:23;;;;;;;16.38;2.95;;;;;;;;;;5017229;28;20371;-67
2021/01/14 02:53:49;;;;;;;11.80;1.98;;;;;;;;;;5015136;28;20053;-67
2021/01/14 02:56:16;;;;;;;13.48;1.85;;;;;;;;;;5015647;28;20028;-66
2021/01/14 02:58:41;;;;;;;17.38;1.75;;;;;;;;;;5017213;28;20033;-67
2021/01/14 03:01:06;;;;;;;9.63;1.63;;;;;;;;;;5017469;28;20096;-67
2021/01/14 03:03:31;;;;;;;9.38;1.73;;;;;;;;;;5015835;28;20261;-66
2021/01/14 03:05:56;;;;;;;12.05;1.70;;;;;;;;;;5016083;28;20096;-67
2021/01/14 03:08:22;;;;;;;15.27;2.67;;;;;;;;;;5017477;28;20051;-67
2021/01/14 03:10:47;;;;;;;13.07;2.87;;;;;;;;;;5015642;28;20144;-66
2021/01/14 03:13:12;;;;;;;14.45;3.40;;;;;;;;;;5018715;28;20781;-66
2021/01/14 03:15:37;;;;;;;4.85;1.30;;;;;;;;;;5021683;28;20033;-66
2021/01/14 03:18:03;;;;;;;6.00;1.40;;;;;;;;;;5022669;28;20112;-66
2021/01/14 03:20:28;;;;;;;19.15;2.60;;;;;;;;;;5020522;28;20629;-66
2021/01/14 03:22:53;;;;;;;8.48;1.40;;;;;;;;;;5023232;28;20025;-67
2021/01/14 03:25:18;;;;;;;9.45;1.40;;;;;;;;;;5019000;28;20025;-67
2021/01/14 03:27:44;;;;;;;13.98;1.67;;;;;;;;;;5019581;28;20025;-66
2021/01/14 03:30:10;;;;;;;17.45;1.85;;;;;;;;;;5023044;28;20525;-67
2021/01/14 03:32:35;;;;;;;9.57;1.33;;;;;;;;;;5019276;28;20084;-66
2021/01/14 03:35:01;;;;;;;12.02;1.38;;;;;;;;;;5019362;28;20414;-66
2021/01/14 03:37:26;;;;;;;13.15;1.85;;;;;;;;;;5018761;28;20394;-67
2021/01/14 03:39:51;;;;;;;9.38;1.75;;;;;;;;;;5017858;28;20053;-67
2021/01/14 03:42:20;;;;;;;15.70;1.83;;;;;;;;;;5013921;28;20036;-67
2021/01/14 03:44:46;;;;;;;21.25;2.53;;;;;;;;;;5012159;28;20028;-67
2021/01/14 03:47:11;;;;;;;6.90;1.70;;;;;;;;;;5013350;28;20021;-67
2021/01/14 03:49:36;;;;;;;13.50;1.50;;;;;;;;;;5013000;28;20029;-66
2021/01/14 03:52:01;;;;;;;10.88;1.30;;;;;;;;;;5017292;28;20272;-67
2021/01/14 03:54:27;;;;;;;24.50;1.85;;;;;;;;;;5013830;28;20044;-66
2021/01/14 03:56:52;;;;;;;30.05;1.73;;;;;;;;;;5013123;28;20037;-67
2021/01/14 03:59:17;;;;;;;8.93;1.70;;;;;;;;;;5017620;28;20036;-67
2021/01/14 04:01:42;;;;;;;14.82;1.80;;;;;;;;;;5019514;28;20287;-66
2021/01/14 04:04:07;;;;;;;9.32;1.52;;;;;;;;;;5017458;28;20406;-67
2021/01/14 04:06:33;;;;;;;9.32;1.25;;;;;;;;;;5016688;28;20018;-67
2021/01/14 04:08:59;;;;;;;11.90;1.90;;;;;;;;;;5015976;28;20048;-67
2021/01/14 04:11:24;;;;;;;8.25;1.73;;;;;;;;;;5016609;28;20030;-66
2021/01/14 04:13:49;;;;;;;13.23;2.53;;;;;;;;;;5019288;28;20382;-67
2021/01/14 04:16:14;;;;;;;17.30;2.15;;;;;;;;;;5019921;28;20030;-66
2021/01/14 04:18:40;;;;;;;16.73;1.52;;;;;;;;;;5019931;28;20020;-67
2021/01/14 04:21:05;;;;;;;12.35;2.05;;;;;;;;;;5019653;28;20064;-67
2021/01/14 04:23:30;;;;;;;10.20;2.20;;;;;;;;;;5017520;28;20048;-67
2021/01/14 04:25:55;;;;;;;13.75;1.25;;;;;;;;;;5017784;28;20044;-66
2021/01/14 04:28:22;;;;;;;4.93;1.67;;;;;;;;;;5018170;28;20029;-66
2021/01/14 04:30:47;;;;;;;8.65;1.45;;;;;;;;;;5020940;28;20079;-67
2021/01/14 04:33:12;;;;;;;7.60;1.42;;;;;;;;;;5017852;28;20482;-67
2021/01/14 04:35:44;;;;;;;13.30;1.95;;;;;;;;;;5015850;28;20685;-67
2021/01/14 04:38:09;;;;;;;17.30;1.60;;;;;;;;;;5016595;28;20030;-66
2021/01/14 04:40:35;;;;;;;9.30;1.27;;;;;;;;;;5012833;28;20393;-66
2021/01/14 04:43:00;;;;;;;11.05;1.92;;;;;;;;;;5011322;28;20018;-66
2021/01/14 04:45:25;;;;;;;15.27;2.50;;;;;;;;;;5012537;28;20014;-66
2021/01/14 04:47:51;;;;;;;6.97;1.70;;;;;;;;;;5010601;28;20036;-66
2021/01/14 04:50:16;;;;;;;11.80;0.98;;;;;;;;;;5013697;28;20032;-66
2021/01/14 04:52:42;;;;;;;11.88;1.33;;;;;;;;;;5011498;28;20394;-68
2021/01/14 04:55:13;;;;;;;8.93;1.33;;;;;;;;;;5012770;28;20029;-66
2021/01/14 04:57:39;;;;;;;17.23;1.65;;;;;;;;;;5011943;28;20056;-66
2021/01/14 05:00:04;;;;;;;9.55;1.77;;;;;;;;;;5017438;28;20041;-66
2021/01/14 05:02:31;;;;;;;25.65;2.33;;;;;;;;;;5017288;28;20025;-66
2021/01/14 05:05:02;;;;;;;11.82;3.85;;;;;;;;;;5018844;28;20055;-66
2021/01/14 05:07:31;;;;;;;16.45;2.03;;;;;;;;;;5016802;28;20017;-66
2021/01/14 05:10:01;;;;;;;15.85;1.88;;;;;;;;;;5019302;28;20041;-66
2021/01/14 05:12:26;;;;;;;9.82;1.98;;;;;;;;;;5018073;28;20021;-66
2021/01/14 05:14:52;;;;;;;7.70;1.92;;;;;;;;;;5019674;28;20033;-66
2021/01/14 05:17:17;;;;;;;13.15;1.50;;;;;;;;;;5019234;28;20093;-66
2021/01/14 05:19:42;;;;;;;15.23;1.65;;;;;;;;;;5014796;28;20037;-66
2021/01/14 05:22:07;;;;;;;15.25;2.13;;;;;;;;;;5017835;28;20111;-66
2021/01/14 05:24:32;;;;;;;10.43;1.60;;;;;;;;;;5013626;28;20060;-66
2021/01/14 05:26:58;;;;;;;19.42;2.13;;;;;;;;;;5019456;28;20036;-66
2021/01/14 05:29:23;;;;;;;12.07;1.75;;;;;;;;;;5017397;28;20394;-66
2021/01/14 05:31:49;;;;;;;14.70;2.03;;;;;;;;;;5011268;28;20049;-67
2021/01/14 05:34:14;;;;;;;8.35;2.10;;;;;;;;;;5012544;28;20112;-66
2021/01/14 05:36:48;;;;;;;14.15;1.67;;;;;;;;;;5009863;28;20022;-66
2021/01/14 05:39:14;;;;;;;12.73;1.35;;;;;;;;;;5012414;28;20026;-66
2021/01/14 05:41:40;;;;;;;19.77;2.25;;;;;;;;;;5019498;28;20017;-66
2021/01/14 05:44:05;;;;;;;17.02;2.00;;;;;;;;;;5018140;28;20056;-66
2021/01/14 05:46:31;;;;;;;14.40;2.35;;;;;;;;;;5016245;28;20052;-66
2021/01/14 05:48:57;;;;;;;11.13;1.75;;;;;;;;;;5017018;28;20048;-66
2021/01/14 05:51:23;;;;;;;16.48;1.73;;;;;;;;;;5017149;28;20033;-66
2021/01/14 05:54:08;;;;;;;22.65;1.83;;;;;;;;;;5016646;28;20435;-66
2021/01/14 05:56:37;;;;;;;8.45;1.30;;;;;;;;;;5018098;28;20426;-66
2021/01/14 05:59:06;;;;;;;13.52;2.45;;;;;;;;;;5017979;28;20029;-66
2021/01/14 06:01:31;;;;;;;10.15;1.80;;;;;;;;;;5018742;28;20450;-66
2021/01/14 06:04:12;;;;;;;18.45;2.60;;;;;;;;;;5016819;28;20049;-66
2021/01/14 06:06:38;;;;;;;14.63;2.20;;;;;;;;;;5016330;28;20031;-66
2021/01/14 06:09:07;;;;;;;17.15;2.50;;;;;;;;;;5016481;28;20033;-66
2021/01/14 06:11:32;;;;;;;17.65;2.92;;;;;;;;;;5017048;28;20377;-66
2021/01/14 06:13:57;;;;;;;22.15;2.75;;;;;;;;;;5018073;28;20039;-66
2021/01/14 06:16:23;;;;;;;22.83;2.85;;;;;;;;;;5015604;28;20079;-66
2021/01/14 06:19:17;;;;;;;26.52;3.38;;;;;;;;;;5015562;28;20405;-66
2021/01/14 06:21:49;;;;;;;14.20;2.55;;;;;;;;;;5065582;23;20064;-64
2021/01/14 06:24:17;;;;;;;13.50;2.60;;;;;;;;;;5054746;28;20335;-64
2021/01/14 06:26:42;;;;;;;13.73;2.35;;;;;;;;;;5049757;28;20031;-64
2021/01/14 06:29:15;;;;;;;15.45;2.20;;;;;;;;;;5047678;28;20100;-65
2021/01/14 06:31:40;;;;;;;25.13;3.17;;;;;;;;;;5045549;28;20036;-65
2021/01/14 06:34:07;;;;;;;19.10;3.10;;;;;;;;;;5044652;28;20032;-64
2021/01/14 06:36:33;;;;;;;23.27;3.38;;;;;;;;;;5045733;28;20029;-65
2021/01/14 06:39:01;;;;;;;22.45;3.13;;;;;;;;;;5044728;28;20036;-64
2021/01/14 06:41:30;;;;;;;14.07;2.50;;;;;;;;;;5036501;28;20079;-64
2021/01/14 06:43:57;;;;;;;9.70;3.13;;;;;;;;;;5040284;28;20080;-64
2021/01/14 06:46:22;;;;;;;20.27;3.15;;;;;;;;;;5039875;28;20078;-64
2021/01/14 06:48:54;;;;;;;12.90;2.40;;;;;;;;;;5040080;28;21827;-65
2021/01/14 06:51:23;;;;;;;15.98;2.50;;;;;;;;;;5040231;28;20083;-65
2021/01/14 06:53:49;;;;;;;15.77;2.22;;;;;;;;;;5041096;28;20021;-65
2021/01/14 06:56:16;;;;;;;14.20;2.65;;;;;;;;;;5041876;28;20087;-65
2021/01/14 06:58:42;;;;;;;14.07;2.72;;;;;;;;;;5041074;28;20080;-65
2021/01/14 07:01:07;;;;;;;21.65;2.58;;;;;;;;;;5041116;28;20120;-63
2021/01/14 07:03:59;;;;;;;15.88;2.58;;;;;;;;;;5044274;28;20031;-65
2021/01/14 07:06:32;;;;;;;16.08;2.63;;;;;;;;;;5040844;28;20120;-63
2021/01/14 07:09:13;;;;;;;19.20;4.30;;;;;;;;;;5044394;28;20027;-64
2021/01/14 07:11:41;;;;;;;17.48;2.90;;;;;;;;;;5041322;28;20017;-64
2021/01/14 07:14:13;;;;;;;24.25;2.83;;;;;;;;;;5041719;28;20043;-65
2021/01/14 07:16:41;;;;;;;13.98;2.40;;;;;;;;;;5040953;28;21918;-64
2021/01/14 07:19:06;;;;;;;15.00;2.05;;;;;;;;;;5040311;28;20182;-64
2021/01/14 07:21:32;;;;;;;20.13;2.75;;;;;;;;;;5034408;28;20580;-65
2021/01/14 07:24:04;;;;;;;18.92;3.25;;;;;;;;;;5033858;28;20013;-65
2021/01/14 07:26:31;;;;;;;18.20;2.55;;;;;;;;;;5041037;28;20053;-64
2021/01/14 07:29:00;;;;;;;17.35;3.30;;;;;;;;;;5042409;28;20109;-64
2021/01/14 07:31:26;;;;;;;16.83;2.00;;;;;;;;;;5041804;28;20039;-64
2021/01/14 07:33:55;;;;;;;13.88;2.58;;;;;;;;;;5039148;28;20104;-64
2021/01/14 07:36:24;;;;;;;13.25;2.65;;;;;;;;;;5039872;28;20459;-64
2021/01/14 07:38:51;;;;;;;18.08;2.70;;;;;;;;;;5040561;28;20021;-64
2021/01/14 07:41:17;;;;;;;11.68;2.63;;;;;;;;;;5050246;28;20024;-64
2021/01/14 07:43:45;;;;;;;25.42;2.92;;;;;;;;;;5059374;28;20028;-64
2021/01/14 07:46:14;;;;;;;20.13;2.83;;;;;;;;;;5054313;28;20066;-64
2021/01/14 07:48:39;;;;;;;15.00;3.15;;;;;;;;;;5055612;28;20025;-64
2021/01/14 07:51:05;;;;;;;14.52;2.78;;;;;;;;;;5051305;28;20047;-64
2021/01/14 07:53:30;;;;;;;17.17;3.53;;;;;;;;;;5052914;28;20435;-64
2021/01/14 07:55:55;;;;;;;22.23;4.95;;;;;;;;;;5052257;28;20025;-64
2021/01/14 07:58:24;;;;;;;11.30;3.10;;;;;;;;;;5051101;28;20053;-64
2021/01/14 08:00:59;;;;;;;15.55;2.63;;;;;;;;;;5052706;28;20075;-64
2021/01/14 08:03:37;;;;;;;16.60;2.70;;;;;;;;;;5054326;28;20052;-64
2021/01/14 08:06:22;;;;;;;12.75;2.20;;;;;;;;;;5045378;28;20115;-64
2021/01/14 08:09:07;;;;;;;11.55;2.63;;;;;;;;;;5055039;28;20015;-64
2021/01/14 08:11:32;;;;;;;19.23;3.00;;;;;;;;;;5060515;28;20507;-64
2021/01/14 08:14:10;;;;;;;31.30;3.42;;;;;;;;;;5054453;28;20033;-65
2021/01/14 08:16:38;;;;;;;13.52;2.75;;;;;;;;;;5056192;28;21109;-65
2021/01/14 08:19:23;;;;;;;16.98;3.40;;;;;;;;;;5058907;28;20020;-65
2021/01/14 08:21:48;;;;;;;13.30;2.20;;;;;;;;;;5048088;28;20431;-65
2021/01/14 08:24:33;;;;;;;16.73;2.70;;;;;;;;;;5060627;28;20017;-65
2021/01/14 08:27:05;;;;;;;23.02;2.85;;;;;;;;;;5057334;28;20365;-65
2021/01/14 08:29:35;;;;;;;10.90;3.78;;;;;;;;;;5035309;28;20026;-65
2021/01/14 08:32:00;;;;;;;20.33;5.30;;;;;;;;;;5060182;28;20071;-65
2021/01/14 08:34:26;;;;;;;16.60;5.05;;;;;;;;;;5057810;28;20457;-65
2021/01/14 08:36:55;;;;;;;13.27;3.10;;;;;;;;;;5056504;28;20024;-65
2021/01/14 08:39:21;;;;;;;28.50;5.40;;;;;;;;;;5062426;28;20023;-65
2021/01/14 08:41:47;;;;;;;24.08;4.35;;;;;;;;;;5059054;28;20025;-65
2021/01/14 08:44:13;;;;;;;12.90;2.63;;;;;;;;;;5065891;28;20419;-65
2021/01/14 08:46:42;;;;;;;16.17;2.95;;;;;;;;;;5057127;28;20039;-65
2021/01/14 08:49:15;;;;;;;21.73;3.13;;;;;;;;;;5056821;28;20107;-65
2021/01/14 08:51:41;;;;;;;14.20;4.10;;;;;;;;;;5057361;28;20259;-65
2021/01/14 08:54:06;;;;;;;21.75;3.00;;;;;;;;;;5059514;28;20028;-64
2021/01/14 08:56:32;;;;;;;25.98;3.60;;;;;;;;;;5059871;28;20068;-65
2021/01/14 08:59:10;;;;;;;10.80;2.90;;;;;;;;;;5061547;28;20127;-65
2021/01/14 09:01:35;;;;;;;20.13;3.40;;;;;;;;;;5061292;28;20063;-65
2021/01/14 09:04:00;;;;;;;26.00;4.20;;;;;;;;;;5053193;28;20450;-64
2021/01/14 09:06:38;;;;;;;9.23;2.88;;;;;;;;;;5057830;28;20039;-64
2021/01/14 09:09:08;;;;;;;19.85;3.05;;;;;;;;;;5058479;28;20021;-64
2021/01/14 09:11:34;;;;;;;16.50;3.10;;;;;;;;;;5054382;28;20028;-65
2021/01/14 09:14:00;;;;;;;17.05;3.60;;;;;;;;;;5065363;28;20086;-64
2021/01/14 09:16:25;;;;;;;25.38;3.35;;;;;;;;;;5057404;28;20477;-65
2021/01/14 09:18:50;;;;;;;17.83;3.38;;;;;;;;;;5058072;28;20017;-65
2021/01/14 09:21:15;;;;;;;16.58;2.80;;;;;;;;;;5051513;28;20088;-64
2021/01/14 09:23:41;;;;;;;13.43;3.53;;;;;;;;;;5056962;28;20047;-64
2021/01/14 09:26:22;;;;;;;12.90;2.92;;;;;;;;;;5057539;28;20009;-64
2021/01/14 09:28:51;;;;;;;18.65;3.53;;;;;;;;;;5063366;28;20051;-64
2021/01/14 09:31:17;;;;;;;19.42;4.25;;;;;;;;;;5055255;28;20028;-64
2021/01/14 09:33:43;;;;;;;17.95;4.32;;;;;;;;;;5066805;28;20016;-64
2021/01/14 09:36:09;;;;;;;27.70;4.00;;;;;;;;;;5057302;28;20086;-64
2021/01/14 09:38:41;;;;;;;14.23;3.10;;;;;;;;;;5060494;28;20342;-64
2021/01/14 09:41:07;;;;;;;12.40;3.63;;;;;;;;;;5062169;28;20506;-65
2021/01/14 09:43:33;;;;;;;19.80;3.72;;;;;;;;;;5062250;28;20020;-65
2021/01/14 09:45:59;;;;;;;16.35;3.83;;;;;;;;;;5051631;28;20053;-64
2021/01/14 09:48:24;;;;;;;15.23;4.85;;;;;;;;;;5060421;28;20054;-64
2021/01/14 09:50:50;;;;;;;20.48;4.32;;;;;;;;;;5056983;28;20036;-64
2021/01/14 09:53:16;;;;;;;19.02;4.13;;;;;;;;;;5059617;28;20024;-64
2021/01/14 09:55:41;;;;;;;15.20;3.65;;;;;;;;;;5061654;28;20025;-64
2021/01/14 09:58:10;;;;;;;16.08;3.83;;;;;;;;;;5055492;28;20021;-64
2021/01/14 10:00:36;;;;;;;17.45;3.72;;;;;;;;;;5047711;28;20018;-64
2021/01/14 10:03:05;;;;;;;16.60;3.22;;;;;;;;;;5043501;28;20070;-64
2021/01/14 10:05:30;;;;;;;9.38;3.33;;;;;;;;;;5056051;28;20021;-64
2021/01/14 10:07:59;;;;;;;10.88;3.22;;;;;;;;;;5057730;28;20158;-64
2021/01/14 10:10:27;;;;;;;17.13;4.28;;;;;;;;;;5056847;28;20082;-64
2021/01/14 10:12:53;;;;;;;16.65;3.15;;;;;;;;;;5056674;28;20489;-64
2021/01/14 10:15:19;;;;;;;11.98;3.03;;;;;;;;;;5056961;28;20064;-64
2021/01/14 10:17:45;;;;;;;14.82;2.97;;;;;;;;;;5057888;28;20508;-64
2021/01/14 10:20:15;;;;;;;6.63;3.25;;;;;;;;;;5053308;28;20013;-64
2021/01/14 10:22:46;;;;;;;19.65;3.03;;;;;;;;;;5054711;28;20025;-64
2021/01/14 10:25:12;;;;;;;16.23;3.55;;;;;;;;;;5040909;28;20528;-64
2021/01/14 10:27:37;;;;;;;12.38;3.00;;;;;;;;;;5039270;28;20025;-64
2021/01/14 10:30:19;;;;;;;12.75;3.42;;;;;;;;;;5051751;28;20393;-64
2021/01/14 10:32:45;;;;;;;10.07;2.58;;;;;;;;;;5053186;28;20110;-64
2021/01/14 10:35:21;;;;;;;7.45;3.22;;;;;;;;;;5054184;28;20741;-64
2021/01/14 10:37:46;;;;;;;8.65;3.47;;;;;;;;;;5054625;28;20013;-64
2021/01/14 10:40:18;;;;;;;14.75;4.35;;;;;;;;;;5053729;28;20066;-64
2021/01/14 10:42:47;;;;;;;12.23;3.65;;;;;;;;;;5050910;28;20044;-64
2021/01/14 10:45:13;;;;;;;7.43;3.28;;;;;;;;;;5050482;28;20032;-65
2021/01/14 10:47:39;;;;;;;7.50;3.67;;;;;;;;;;5051569;28;20028;-65
2021/01/14 10:50:24;;;;;;;12.77;3.00;;;;;;;;;;5052654;28;20461;-65
2021/01/14 10:52:55;;;;;;;16.58;4.43;;;;;;;;;;5054725;28;20083;-64
2021/01/14 10:55:20;;;;;;;6.63;3.55;;;;;;;;;;5050587;28;20032;-67
2021/01/14 10:57:52;;;;;;;8.90;3.10;;;;;;;;;;5044587;28;20028;-66
2021/01/14 11:00:22;;;;;;;10.60;3.58;;;;;;;;;;5055052;28;20027;-65
2021/01/14 11:02:47;;;;;;;15.77;4.38;;;;;;;;;;5050068;28;20013;-65
2021/01/14 11:05:13;;;;;;;11.85;4.53;;;;;;;;;;5052399;28;20024;-67
2021/01/14 11:07:39;;;;;;;14.82;4.05;;;;;;;;;;5051295;28;20024;-65
2021/01/14 11:10:07;;;;;;;7.10;3.00;;;;;;;;;;5053685;28;20045;-65
2021/01/14 11:12:32;;;;;;;10.20;3.30;;;;;;;;;;5051455;28;20028;-65
2021/01/14 11:14:58;;;;;;;11.60;3.35;;;;;;;;;;5049217;28;20031;-64
2021/01/14 11:17:24;;;;;;;17.15;3.38;;;;;;;;;;5048382;28;20043;-66
2021/01/14 11:19:50;;;;;;;8.82;2.40;;;;;;;;;;5048667;28;20017;-65
2021/01/14 11:22:15;;;;;;;7.78;2.78;;;;;;;;;;5047329;28;20029;-64
2021/01/14 11:24:40;;;;;;;14.87;3.10;;;;;;;;;;5049042;28;20620;-64
2021/01/14 11:27:05;;;;;;;11.03;3.07;;;;;;;;;;5047873;28;20267;-64
2021/01/14 11:29:33;;;;;;;5.45;2.30;;;;;;;;;;5051992;28;20842;-64
2021/01/14 11:31:58;;;;;;;6.65;2.13;;;;;;;;;;5052744;28;20021;-64
2021/01/14 11:34:23;;;;;;;8.73;2.67;;;;;;;;;;5052330;28;20397;-64
2021/01/14 11:36:48;;;;;;;9.20;2.38;;;;;;;;;;5052575;28;20017;-65
2021/01/14 11:39:13;;;;;;;7.10;2.30;;;;;;;;;;5056166;28;20111;-67
2021/01/14 11:41:39;;;;;;;17.42;3.15;;;;;;;;;;5056474;28;20055;-64
2021/01/14 11:44:04;;;;;;;3.30;1.63;;;;;;;;;;5053694;28;20477;-67
2021/01/14 11:46:29;;;;;;;6.68;2.38;;;;;;;;;;5051223;28;20031;-65
2021/01/14 11:48:54;;;;;;;1.67;1.00;;;;;;;;;;5056020;28;20092;-65
2021/01/14 11:51:20;;;;;;;5.43;2.13;;;;;;;;;;5057376;28;20104;-65
2021/01/14 11:53:45;;;;;;;6.90;1.80;;;;;;;;;;5052997;28;20071;-65
2021/01/14 11:56:14;;;;;;;4.80;1.52;;;;;;;;;;5052251;28;20458;-66
2021/01/14 11:58:39;;;;;;;2.20;1.30;;;;;;;;;;5061914;28;20033;-66
2021/01/14 12:01:04;;;;;;;10.97;1.77;;;;;;;;;;5057107;28;20123;-64
2021/01/14 12:03:31;;;;;;;4.13;2.20;;;;;;;;;;5053061;28;20901;-66
2021/01/14 12:05:56;;;;;;;7.38;2.50;;;;;;;;;;5053178;28;20350;-64
2021/01/14 12:08:22;;;;;;;14.27;2.65;;;;;;;;;;5051926;28;20025;-64
2021/01/14 12:10:47;;;;;;;13.90;2.53;;;;;;;;;;5057084;28;20045;-65
2021/01/14 12:13:12;;;;;;;19.60;1.63;;;;;;;;;;5052647;28;20096;-65
2021/01/14 12:15:37;;;;;;;8.53;2.33;;;;;;;;;;5055710;28;20028;-65
2021/01/14 12:18:03;;;;;;;13.82;2.80;;;;;;;;;;5052329;28;20283;-65
2021/01/14 12:20:28;;;;;;;4.72;2.05;;;;;;;;;;5053007;28;20028;-65
2021/01/14 12:22:53;;;;;;;5.87;2.17;;;;;;;;;;5053102;28;20044;-64
2021/01/14 12:25:18;;;;;;;7.13;2.30;;;;;;;;;;5055875;28;20283;-65
2021/01/14 12:27:43;;;;;;;9.98;1.70;;;;;;;;;;5053728;28;20619;-66
2021/01/14 12:30:09;;;;;;;7.82;2.40;;;;;;;;;;5052713;28;20505;-64
2021/01/14 12:32:35;;;;;;;9.93;2.40;;;;;;;;;;5054640;28;20171;-64
2021/01/14 12:35:00;;;;;;;10.48;2.58;;;;;;;;;;5054540;28;20430;-65
2021/01/14 12:37:35;;;;;;;7.63;2.50;;;;;;;;;;5054457;28;20025;-64
2021/01/14 12:40:02;;;;;;;10.52;2.15;;;;;;;;;;5055918;28;20103;-65
2021/01/14 12:42:27;;;;;;;6.50;2.70;;;;;;;;;;5057227;28;20021;-64
2021/01/14 12:44:52;;;;;;;5.05;2.15;;;;;;;;;;5054390;28;20017;-65
2021/01/14 12:47:17;;;;;;;8.95;2.15;;;;;;;;;;5059162;28;20025;-64
2021/01/14 12:49:42;;;;;;;8.23;2.28;;;;;;;;;;5055555;28;20122;-67
2021/01/14 12:52:08;;;;;;;6.53;2.15;;;;;;;;;;5053854;28;20074;-64
2021/01/14 12:54:33;;;;;;;5.07;1.45;;;;;;;;;;5050138;28;20410;-64
2021/01/14 12:56:58;;;;;;;5.28;1.55;;;;;;;;;;5052031;28;20032;-64
2021/01/14 12:59:23;;;;;;;8.00;2.20;;;;;;;;;;5051635;28;20025;-64
2021/01/14 13:01:48;;;;;;;10.07;2.88;;;;;;;;;;5054876;28;20306;-65
2021/01/14 13:04:16;;;;;;;11.07;2.22;;;;;;;;;;5055906;28;20017;-65
2021/01/14 13:06:41;;;;;;;3.55;1.23;;;;;;;;;;5062382;28;20384;-64
2021/01/14 13:09:07;;;;;;;9.43;2.55;;;;;;;;;;5059508;28;20097;-64
2021/01/14 13:11:33;;;;;;;4.80;2.58;;;;;;;;;;5054110;28;20035;-63
2021/01/14 13:13:59;;;;;;;5.90;2.42;;;;;;;;;;5052892;28;20024;-65
2021/01/14 13:16:42;;;;;;;11.45;2.55;;;;;;;;;;5052666;28;20111;-63
2021/01/14 13:19:09;;;;;;;8.27;2.67;;;;;;;;;;5051632;28;20017;-65
2021/01/14 13:21:35;;;;;;;11.05;2.40;;;;;;;;;;5052532;28;20103;-64
2021/01/14 13:24:02;;;;;;;13.23;2.90;;;;;;;;;;5047084;28;20024;-63
2021/01/14 13:26:27;;;;;;;8.00;2.75;;;;;;;;;;5046746;28;20520;-64
2021/01/14 13:28:52;;;;;;;8.88;2.20;;;;;;;;;;5047725;28;20025;-64
2021/01/14 13:31:18;;;;;;;5.93;2.97;;;;;;;;;;5052966;28;20071;-66
2021/01/14 13:33:43;;;;;;;4.65;2.05;;;;;;;;;;5047188;28;20513;-64
2021/01/14 13:36:08;;;;;;;8.47;2.57;;;;;;;;;;5051189;28;20096;-67
2021/01/14 13:38:33;;;;;;;5.88;2.30;;;;;;;;;;5051025;28;20290;-63
2021/01/14 13:40:58;;;;;;;8.30;2.60;;;;;;;;;;5053072;28;20013;-64
2021/01/14 13:43:24;;;;;;;8.50;2.27;;;;;;;;;;5053398;28;20029;-64
2021/01/14 13:45:49;;;;;;;8.90;3.23;;;;;;;;;;5060879;28;20271;-63
2021/01/14 13:48:14;;;;;;;5.80;1.85;;;;;;;;;;5050756;28;20270;-63
2021/01/14 13:50:39;;;;;;;4.47;1.63;;;;;;;;;;5050165;28;20024;-65
2021/01/14 13:53:04;;;;;;;7.25;2.33;;;;;;;;;;5052263;28;20028;-65
2021/01/14 13:55:30;;;;;;;5.85;2.40;;;;;;;;;;5053494;28;20729;-64
2021/01/14 13:57:55;;;;;;;5.25;2.03;;;;;;;;;;5051571;28;20469;-64
2021/01/14 14:00:20;;;;;;;7.73;2.10;;;;;;;;;;5054526;28;20078;-65
2021/01/14 14:02:45;;;;;;;6.30;2.38;;;;;;;;;;5056654;28;20262;-65
2021/01/14 14:05:11;;;;;;;11.05;2.50;;;;;;;;;;5050860;28;20017;-65
2021/01/14 14:07:39;;;;;;;2.40;0.85;;;;;;;;;;5055540;28;20036;-65
2021/01/14 14:10:05;;;;;;;12.63;2.30;;;;;;;;;;5051915;28;20107;-65
2021/01/14 14:12:31;;;;;;;6.10;2.08;;;;;;;;;;5053544;28;20048;-64
2021/01/14 14:14:56;;;;;;;8.65;1.65;;;;;;;;;;5053796;28;20060;-65
2021/01/14 14:17:21;;;;;;;2.37;1.37;;;;;;;;;;5051630;28;20136;-65
2021/01/14 14:19:47;;;;;;;10.38;2.47;;;;;;;;;;5051058;28;20293;-65
2021/01/14 14:22:12;;;;;;;13.17;2.73;;;;;;;;;;5054956;28;20100;-65
2021/01/14 14:24:37;;;;;;;12.68;2.80;;;;;;;;;;5051023;28;20255;-65
2021/01/14 14:27:03;;;;;;;7.57;2.75;;;;;;;;;;5050037;28;20017;-65
2021/01/14 14:29:28;;;;;;;15.35;2.05;;;;;;;;;;5051128;28;20259;-65
2021/01/14 14:31:53;;;;;;;8.10;2.23;;;;;;;;;;5049997;28;20029;-64
2021/01/14 14:34:18;;;;;;;10.17;2.37;;;;;;;;;;5051837;28;20340;-64